Time;durP1;ratioP1;P1;durP2;ratioP2;P2;SDS_P1;SDS_P2;PMS_P1;PMS_P2;Temp;Humidity;BMP_temperature;BMP_pressure;BME280_temperature;BME280_humidity;BME280_pressure;Samples;Min_cycle;Max_cycle;Signal;HPM_P1;HPM_P2
2023/01/31 00:01:33;;;;;;;5.15;1.50;;;;;;;7.55;89.68;101552.69;5018750;28;20077;-44
2023/01/31 00:04:06;;;;;;;2.88;1.65;;;;;;;7.56;89.82;101563.41;5028357;28;20060;-43
2023/01/31 00:06:35;;;;;;;8.27;1.90;;;;;;;7.58;89.92;101552.09;5026227;28;20045;-43
2023/01/31 00:09:04;;;;;;;4.07;1.20;;;;;;;7.59;90.07;101565.56;5028209;28;20049;-46
2023/01/31 00:11:31;;;;;;;6.72;1.60;;;;;;;7.59;90.07;101560.06;5034083;28;20049;-45
2023/01/31 00:13:59;;;;;;;5.03;1.20;;;;;;;7.61;90.37;101563.31;5027699;28;20065;-42
2023/01/31 00:16:25;;;;;;;2.72;1.65;;;;;;;7.61;90.37;101563.31;5015172;28;20095;-43
2023/01/31 00:18:52;;;;;;;6.10;1.77;;;;;;;7.62;90.55;101556.69;5028189;28;20565;-46
2023/01/31 00:21:22;;;;;;;11.00;1.67;;;;;;;7.62;90.70;101553.94;5027611;28;20421;-43
2023/01/31 00:23:49;;;;;;;5.00;1.55;;;;;;;7.62;91.03;101558.63;5027052;28;20049;-43
2023/01/31 00:26:25;;;;;;;2.47;1.10;;;;;;;7.63;90.90;101539.03;5025812;28;20483;-43
2023/01/31 00:28:54;;;;;;;7.35;1.35;;;;;;;7.63;90.87;101528.00;5027767;28;20049;-46
2023/01/31 00:31:22;;;;;;;7.20;1.88;;;;;;;7.63;91.12;101525.25;5027884;28;20546;-50
2023/01/31 00:33:51;;;;;;;8.82;1.60;;;;;;;7.64;91.11;101518.63;5031692;28;20091;-44
2023/01/31 00:36:20;;;;;;;9.35;1.50;;;;;;;7.64;90.89;101507.59;5027329;28;20057;-46
2023/01/31 00:38:49;;;;;;;4.95;1.40;;;;;;;7.67;91.38;101533.72;5027281;28;20081;-44
2023/01/31 00:41:19;;;;;;;6.35;1.38;;;;;;;7.69;91.33;101515.75;5023045;28;20076;-42
2023/01/31 00:43:46;;;;;;;6.13;1.58;;;;;;;7.68;91.51;101525.13;5026227;28;20037;-48
2023/01/31 00:46:12;;;;;;;7.18;1.55;;;;;;;7.71;91.59;101519.00;5027686;28;20466;-42
2023/01/31 00:48:39;;;;;;;5.38;1.20;;;;;;;7.71;91.55;101535.56;5027553;28;20040;-43
2023/01/31 00:51:06;;;;;;;10.63;1.58;;;;;;;7.74;91.53;101517.59;5027723;28;20057;-43
2023/01/31 00:53:33;;;;;;;8.70;1.38;;;;;;;7.74;91.54;101523.91;5027290;28;20052;-44
2023/01/31 00:56:06;;;;;;;9.02;1.38;;;;;;;7.75;91.52;101522.81;5024745;28;20048;-44
2023/01/31 00:58:33;;;;;;;3.75;1.33;;;;;;;7.75;91.72;101522.81;5014647;28;20103;-43
2023/01/31 01:01:26;;;;;;;5.45;2.28;;;;;;;7.76;91.80;101505.13;5026987;28;20050;-43
2023/01/31 01:03:54;;;;;;;8.95;1.70;;;;;;;7.78;91.82;101511.13;5024321;28;20045;-45
2023/01/31 01:06:22;;;;;;;8.57;1.38;;;;;;;7.80;91.87;101519.13;5026965;28;20087;-43
2023/01/31 01:08:49;;;;;;;5.35;1.33;;;;;;;7.80;91.89;101511.66;5027650;28;20049;-43
2023/01/31 01:11:21;;;;;;;4.22;1.27;;;;;;;7.82;91.98;101509.41;5029258;28;20042;-46
2023/01/31 01:13:49;;;;;;;8.50;1.30;;;;;;;7.83;91.97;101504.72;5027575;28;20216;-43
2023/01/31 01:16:19;;;;;;;3.50;1.10;;;;;;;7.84;92.06;101498.88;5024175;28;20050;-43
2023/01/31 01:18:48;;;;;;;2.83;1.15;;;;;;;7.84;92.02;101501.66;5027428;28;20037;-44
2023/01/31 01:21:18;;;;;;;3.33;1.50;;;;;;;7.86;92.19;101502.16;5027355;28;20061;-43
2023/01/31 01:23:46;;;;;;;5.22;1.70;;;;;;;7.86;92.34;101491.13;5027845;28;20073;-44
2023/01/31 01:26:18;;;;;;;7.60;1.48;;;;;;;7.84;92.44;101481.53;5026155;28;20053;-43
2023/01/31 01:28:45;;;;;;;9.10;2.00;;;;;;;7.83;92.61;101507.47;5027124;28;20073;-42
2023/01/31 01:31:15;;;;;;;6.80;3.30;;;;;;;7.82;92.97;101484.59;5027252;28;20343;-42
2023/01/31 01:33:43;;;;;;;8.02;1.70;;;;;;;7.82;92.87;101492.88;5030366;28;20045;-45
2023/01/31 01:36:12;;;;;;;10.10;1.77;;;;;;;7.82;93.00;101486.53;5027516;28;20049;-43
2023/01/31 01:38:42;;;;;;;6.30;1.73;;;;;;;7.81;93.12;101479.41;5026955;28;20045;-43
2023/01/31 01:41:11;;;;;;;9.55;1.85;;;;;;;7.79;93.53;101479.72;5026304;28;20048;-45
2023/01/31 01:43:58;;;;;;;6.35;1.73;;;;;;;7.77;93.57;101473.69;5027053;28;20049;-43
2023/01/31 01:46:39;;;;;;;8.45;1.88;;;;;;;7.76;93.84;101468.47;5022608;28;20042;-45
2023/01/31 01:49:12;;;;;;;5.40;2.33;;;;;;;7.75;93.93;101459.41;5030233;28;20041;-42
2023/01/31 01:51:41;;;;;;;7.95;1.90;;;;;;;7.73;94.09;101464.38;5031136;28;20076;-43
2023/01/31 01:54:14;;;;;;;8.93;4.00;;;;;;;7.72;94.73;101459.19;5030782;28;20041;-49
2023/01/31 01:56:46;;;;;;;5.13;1.65;;;;;;;7.71;94.78;101463.88;5029478;28;20042;-42
2023/01/31 01:59:15;;;;;;;;;;;;;;;7.70;95.07;101461.47;5031094;28;20061;-43
2023/01/31 02:01:44;;;;;;;4.00;1.52;;;;;;;7.69;95.11;101460.63;5029363;28;19936;-49
2023/01/31 02:04:16;;;;;;;8.18;3.55;;;;;;;7.67;95.22;101454.63;5030989;28;20068;-41
2023/01/31 02:06:44;;;;;;;;;;;;;;;7.67;95.52;101451.88;5029942;28;20041;-43
2023/01/31 02:09:18;;;;;;;3.78;1.52;;;;;;;7.67;95.56;101448.28;5029659;28;20356;-44
2023/01/31 02:11:45;;;;;;;5.43;1.75;;;;;;;7.66;95.67;101450.22;5026617;28;20038;-42
2023/01/31 02:14:12;;;;;;;5.70;2.10;;;;;;;7.64;95.67;101449.72;5029047;28;20050;-42
2023/01/31 02:16:38;;;;;;;7.25;1.58;;;;;;;7.66;95.80;101450.22;5030826;28;20057;-43
2023/01/31 02:19:14;;;;;;;6.75;2.13;;;;;;;7.67;96.13;101440.84;5029810;28;20464;-46
2023/01/31 02:22:00;;;;;;;3.72;1.80;;;;;;;7.66;96.21;101430.94;5030280;28;20511;-43
2023/01/31 02:24:51;;;;;;;9.27;1.65;;;;;;;7.68;96.41;101442.47;5028143;28;20045;-43
2023/01/31 02:27:47;;;;;;;11.55;1.92;;;;;;;7.68;96.57;101453.47;5028599;28;20045;-48
2023/01/31 02:30:19;;;;;;;5.72;1.70;;;;;;;7.68;96.69;101442.47;5030561;28;20406;-43
2023/01/31 02:32:56;;;;;;;;;;;;;;;7.68;97.14;101447.97;5030996;28;20041;-42
2023/01/31 02:35:52;;;;;;;4.82;1.38;;;;;;;7.68;97.01;101449.91;5033978;28;19931;-41
2023/01/31 02:38:57;;;;;;;5.07;1.70;;;;;;;7.68;97.30;101436.13;5030006;28;20049;-43
2023/01/31 02:41:37;;;;;;;3.30;1.50;;;;;;;7.68;97.39;101447.16;5014014;28;20061;-43
2023/01/31 02:47:43;;;;;;;4.88;2.00;;;;;;;7.65;97.66;101432.03;5017632;28;20415;-43
2023/01/31 02:50:25;;;;;;;2.33;1.33;;;;;;;7.64;97.88;101435.94;5027370;28;20033;-43
2023/01/31 02:53:01;;;;;;;5.60;2.03;;;;;;;7.64;98.32;101424.91;5029850;28;20045;-43
2023/01/31 02:58:26;;;;;;;2.95;1.52;;;;;;;7.68;98.89;101427.84;5028812;28;20041;-43
2023/01/31 03:00:56;;;;;;;3.35;1.13;;;;;;;7.68;98.87;101425.09;5072200;22;20077;-44
2023/01/31 03:03:26;;;;;;;6.75;1.55;;;;;;;7.68;99.24;101417.66;5030799;28;20050;-43
2023/01/31 03:06:24;;;;;;;6.95;1.55;;;;;;;7.70;99.37;101418.19;5030723;28;20095;-43
2023/01/31 03:09:20;;;;;;;5.07;2.00;;;;;;;7.72;99.51;101426.13;5029407;28;20046;-45
2023/01/31 03:12:13;;;;;;;2.33;1.30;;;;;;;7.72;99.49;101421.44;5036347;28;20054;-43
2023/01/31 03:15:01;;;;;;;3.38;1.25;;;;;;;7.73;99.86;101417.53;5029202;28;20064;-43
2023/01/31 03:17:49;;;;;;;5.20;1.20;;;;;;;7.74;99.79;101421.94;5030171;28;20491;-44
2023/01/31 03:20:20;;;;;;;7.05;1.27;;;;;;;7.75;100.00;101426.34;5030344;28;20068;-43
2023/01/31 03:22:57;;;;;;;6.28;1.60;;;;;;;7.76;100.00;101421.63;5030005;28;20038;-44
2023/01/31 03:25:28;;;;;;;9.98;1.35;;;;;;;7.76;100.00;101416.91;5029932;28;20052;-43
2023/01/31 03:27:59;;;;;;;3.60;1.33;;;;;;;7.77;100.00;101410.28;5030334;28;20061;-43
2023/01/31 03:31:02;;;;;;;7.38;1.30;;;;;;;7.78;100.00;101416.63;5030674;28;20045;-46
2023/01/31 03:33:36;;;;;;;3.33;1.33;;;;;;;7.77;100.00;101421.31;4998285;28;20053;-43
2023/01/31 03:36:05;;;;;;;2.25;0.95;;;;;;;7.77;100.00;101413.06;5030209;28;20041;-43
2023/01/31 03:38:36;;;;;;;5.03;2.85;;;;;;;7.77;100.00;101418.56;5029681;28;20052;-45
2023/01/31 03:41:31;;;;;;;3.70;0.95;;;;;;;7.78;100.00;101419.38;5029839;28;20509;-47
2023/01/31 03:44:05;;;;;;;2.10;0.88;;;;;;;7.78;100.00;101425.69;5029714;28;20302;-42
2023/01/31 03:46:58;;;;;;;2.03;0.85;;;;;;;7.78;100.00;101425.69;5029425;28;20049;-42
2023/01/31 03:49:28;;;;;;;4.82;1.17;;;;;;;7.78;100.00;101408.38;5030376;28;20430;-41
2023/01/31 03:52:03;;;;;;;3.05;0.80;;;;;;;7.77;100.00;101418.56;5029472;28;20049;-41
2023/01/31 03:54:35;;;;;;;4.30;1.10;;;;;;;7.79;100.00;101409.97;5029371;28;20129;-42
2023/01/31 03:57:16;;;;;;;6.10;2.55;;;;;;;7.79;100.00;101404.47;5028284;28;20053;-45
2023/01/31 03:59:47;;;;;;;2.97;0.80;;;;;;;7.81;100.00;101410.50;5029609;28;20484;-41
2023/01/31 04:02:15;;;;;;;1.23;0.98;;;;;;;7.81;100.00;101427.84;5029298;28;20049;-42
2023/01/31 04:04:49;;;;;;;1.33;1.20;;;;;;;7.83;100.00;101422.84;5029377;28;20056;-43
2023/01/31 04:07:16;;;;;;;3.22;1.27;;;;;;;7.84;100.00;101424.47;5029575;28;20132;-42
2023/01/31 04:09:44;;;;;;;1.92;1.83;;;;;;;7.84;100.00;101435.47;5028730;28;20037;-43
2023/01/31 04:12:13;;;;;;;2.85;0.93;;;;;;;7.85;100.00;101431.63;5035454;28;20055;-43
2023/01/31 04:14:41;;;;;;;1.38;1.00;;;;;;;7.86;100.00;101447.00;5029218;28;20045;-43
2023/01/31 04:17:11;;;;;;;1.02;0.98;;;;;;;7.87;100.00;101456.94;5023516;28;20068;-46
2023/01/31 04:19:37;;;;;;;6.65;1.33;;;;;;;7.86;100.00;101448.97;5028872;28;20052;-42
2023/01/31 04:22:04;;;;;;;5.47;1.67;;;;;;;7.84;100.00;101441.00;5029572;28;20042;-44
2023/01/31 04:24:31;;;;;;;11.40;2.00;;;;;;;7.82;100.00;101443.25;5029332;28;20096;-42
2023/01/31 04:26:57;;;;;;;11.32;3.30;;;;;;;7.81;100.00;101451.84;5028951;28;20479;-43
2023/01/31 04:29:24;;;;;;;12.65;2.80;;;;;;;7.78;100.00;101442.22;5028901;28;20128;-43
2023/01/31 04:31:51;;;;;;;8.55;2.97;;;;;;;7.74;100.00;101438.47;5028868;28;20046;-43
2023/01/31 04:34:17;;;;;;;18.48;4.22;;;;;;;7.68;100.00;101450.72;5032107;28;20045;-42
2023/01/31 04:36:44;;;;;;;15.95;3.60;;;;;;;7.62;100.00;101460.25;5026113;28;20508;-44
2023/01/31 04:39:12;;;;;;;15.32;3.42;;;;;;;7.56;100.00;101461.47;5028349;28;20056;-43
2023/01/31 04:41:39;;;;;;;17.88;3.60;;;;;;;7.53;100.00;101456.56;5028792;28;20045;-42
2023/01/31 04:44:05;;;;;;;27.67;5.07;;;;;;;7.48;100.00;101475.16;5029205;28;20048;-45
2023/01/31 04:46:32;;;;;;;30.42;4.95;;;;;;;7.44;100.00;101480.44;5028738;28;20472;-42
2023/01/31 04:48:59;;;;;;;22.65;4.40;;;;;;;7.40;100.00;101471.16;5028636;28;20054;-42
2023/01/31 04:51:25;;;;;;;28.67;3.97;;;;;;;7.33;100.00;101473.53;5027290;28;20056;-47
2023/01/31 04:53:52;;;;;;;23.25;5.55;;;;;;;7.27;100.00;101485.75;5028501;28;20482;-42
2023/01/31 04:56:19;;;;;;;31.38;5.72;;;;;;;7.23;100.00;101495.72;5029597;28;20065;-42
2023/01/31 04:58:47;;;;;;;35.33;6.50;;;;;;;7.19;100.00;101491.97;5028212;28;20049;-42
2023/01/31 05:01:17;;;;;;;28.20;4.60;;;;;;;7.15;100.00;101499.19;5028318;28;20053;-42
2023/01/31 05:03:44;;;;;;;29.42;6.57;;;;;;;7.11;100.00;101498.19;5028745;28;20546;-42
2023/01/31 05:06:10;;;;;;;34.60;6.72;;;;;;;7.07;100.00;101488.91;5028090;28;20494;-42
2023/01/31 05:08:37;;;;;;;19.90;6.03;;;;;;;7.04;100.00;101493.06;5028377;28;20052;-42
2023/01/31 05:11:05;;;;;;;35.05;7.57;;;;;;;7.02;100.00;101488.97;5035068;28;20483;-43
2023/01/31 05:13:37;;;;;;;25.63;5.43;;;;;;;6.96;99.71;101495.72;5037222;28;20045;-42
2023/01/31 05:16:09;;;;;;;36.35;5.50;;;;;;;6.90;99.44;101492.22;5031709;28;20041;-41
2023/01/31 05:18:38;;;;;;;23.85;4.60;;;;;;;6.87;99.03;101497.50;5028541;28;20401;-42
2023/01/31 05:21:06;;;;;;;23.25;6.43;;;;;;;6.82;99.03;101490.16;5028733;28;20042;-41
2023/01/31 05:23:33;;;;;;;24.67;5.45;;;;;;;6.79;98.66;101484.44;5032597;28;20048;-45
2023/01/31 05:26:00;;;;;;;25.63;6.03;;;;;;;6.75;98.33;101479.53;5032416;28;20065;-42
2023/01/31 05:28:26;;;;;;;32.03;5.72;;;;;;;6.71;98.34;101486.78;5031271;28;20056;-42
2023/01/31 05:30:59;;;;;;;28.48;6.25;;;;;;;6.68;98.01;101492.06;5032884;28;20454;-41
2023/01/31 05:33:26;;;;;;;34.25;8.02;;;;;;;6.63;97.68;101481.97;5035714;28;20505;-46
2023/01/31 05:35:55;;;;;;;25.13;4.65;;;;;;;6.60;97.58;101474.31;5032351;28;20549;-41
2023/01/31 05:38:22;;;;;;;26.17;5.35;;;;;;;6.57;97.43;101480.41;5028861;28;20045;-42
2023/01/31 05:40:49;;;;;;;20.00;5.20;;;;;;;6.55;97.46;101474.41;5032836;28;20054;-41
2023/01/31 05:43:16;;;;;;;28.67;6.93;;;;;;;6.52;97.30;101486.00;5032105;28;20053;-41
2023/01/31 05:45:43;;;;;;;32.10;4.50;;;;;;;6.49;97.01;101486.59;5031284;28;20056;-42
2023/01/31 05:48:10;;;;;;;28.63;4.50;;;;;;;6.47;96.98;101477.81;5032838;28;20785;-48
2023/01/31 05:50:38;;;;;;;37.10;7.13;;;;;;;6.45;96.58;101482.81;5030429;28;20731;-41
2023/01/31 05:53:05;;;;;;;23.83;5.53;;;;;;;6.44;96.49;101489.41;5032025;28;20237;-46
2023/01/31 05:55:31;;;;;;;22.95;5.82;;;;;;;6.41;96.46;101484.50;5030522;28;20612;-46
2023/01/31 05:58:01;;;;;;;23.65;5.03;;;;;;;6.39;96.25;101475.75;5031911;28;20049;-41
2023/01/31 06:00:27;;;;;;;32.90;5.05;;;;;;;6.37;96.27;101471.66;5032137;28;20131;-41
2023/01/31 06:02:58;;;;;;;30.70;4.80;;;;;;;6.34;96.25;101478.59;5031418;28;20127;-42
2023/01/31 06:05:26;;;;;;;32.25;6.60;;;;;;;6.31;96.01;101479.19;5032308;28;20595;-41
2023/01/31 06:07:55;;;;;;;26.25;5.30;;;;;;;6.29;95.89;101475.91;5031501;28;20054;-41
2023/01/31 06:10:22;;;;;;;32.30;6.03;;;;;;;6.27;95.79;101478.16;5034481;28;20033;-42
2023/01/31 06:12:49;;;;;;;27.27;7.82;;;;;;;6.26;95.54;101475.69;5035172;28;20049;-41
2023/01/31 06:15:15;;;;;;;23.50;5.00;;;;;;;6.24;95.54;101476.00;5031932;28;20057;-42
2023/01/31 06:17:42;;;;;;;29.00;4.85;;;;;;;6.24;95.61;101483.44;5031170;28;20037;-41
2023/01/31 06:20:09;;;;;;;29.23;5.88;;;;;;;6.22;95.52;101480.16;5031268;28;20075;-42
2023/01/31 06:22:36;;;;;;;35.63;6.60;;;;;;;6.20;95.75;101477.69;5045136;28;20441;-41
2023/01/31 06:25:03;;;;;;;34.72;6.50;;;;;;;6.21;95.67;101481.28;5031964;28;20374;-41
2023/01/31 06:27:32;;;;;;;36.38;6.07;;;;;;;6.22;95.62;101489.25;5031432;28;20132;-41
2023/01/31 06:29:59;;;;;;;31.40;6.95;;;;;;;6.22;95.64;101489.25;5031247;28;20051;-42
2023/01/31 06:32:26;;;;;;;30.45;5.90;;;;;;;6.22;95.98;101480.16;5030488;28;20053;-41
2023/01/31 06:34:52;;;;;;;21.50;5.22;;;;;;;6.23;95.74;101488.09;5035268;28;20387;-41
2023/01/31 06:37:19;;;;;;;26.88;4.80;;;;;;;6.24;95.85;101484.25;5031027;28;20046;-41
2023/01/31 06:39:46;;;;;;;36.00;6.30;;;;;;;6.25;95.89;101490.56;5031934;28;20087;-43
2023/01/31 06:42:12;;;;;;;44.72;8.25;;;;;;;6.26;95.65;101481.19;5030750;28;20041;-41
2023/01/31 06:44:39;;;;;;;33.13;4.90;;;;;;;6.25;95.90;101499.63;5030717;28;20494;-42
2023/01/31 06:47:06;;;;;;;40.10;7.70;;;;;;;6.28;95.91;101495.44;5030920;28;20053;-42
2023/01/31 06:49:32;;;;;;;31.77;7.30;;;;;;;6.30;95.86;101493.25;5031512;28;20050;-41
2023/01/31 06:51:59;;;;;;;39.35;7.45;;;;;;;6.30;95.90;101491.28;5031031;28;20072;-41
2023/01/31 06:54:26;;;;;;;32.33;5.35;;;;;;;6.29;96.15;101492.41;5030544;28;20040;-41
2023/01/31 06:56:52;;;;;;;37.53;6.28;;;;;;;6.30;96.15;101493.25;5030304;28;20041;-41
2023/01/31 06:59:19;;;;;;;30.02;5.80;;;;;;;6.29;96.08;101494.34;5030841;28;20346;-47
2023/01/31 07:01:46;;;;;;;40.88;6.88;;;;;;;6.30;95.95;101498.75;5030481;28;20037;-43
2023/01/31 07:04:13;;;;;;;38.67;5.43;;;;;;;6.28;95.96;101496.28;5030665;28;20544;-43
2023/01/31 07:06:39;;;;;;;25.60;5.05;;;;;;;6.29;96.18;101499.84;5030552;28;20044;-41
2023/01/31 07:09:06;;;;;;;30.27;6.43;;;;;;;6.27;96.18;101508.41;5026589;28;20045;-45
2023/01/31 07:11:33;;;;;;;30.90;6.22;;;;;;;6.27;96.12;101505.66;5037025;28;20049;-42
2023/01/31 07:14:00;;;;;;;27.98;5.78;;;;;;;6.27;95.94;101522.16;5030097;28;20099;-41
2023/01/31 07:16:26;;;;;;;25.25;5.95;;;;;;;6.28;95.90;101523.78;5030618;28;20470;-41
2023/01/31 07:18:53;;;;;;;29.35;4.60;;;;;;;6.28;95.75;101528.44;5028436;28;20125;-42
2023/01/31 07:21:21;;;;;;;29.55;4.68;;;;;;;6.25;95.61;101535.38;5030414;28;20065;-41
2023/01/31 07:23:48;;;;;;;34.80;5.32;;;;;;;6.26;95.86;101526.00;5029894;28;20450;-45
2023/01/31 07:26:14;;;;;;;25.35;5.88;;;;;;;6.28;95.66;101542.19;5030307;28;20045;-41
2023/01/31 07:28:41;;;;;;;27.80;5.13;;;;;;;6.28;95.54;101539.44;5030065;28;20490;-42
2023/01/31 07:31:11;;;;;;;34.55;5.15;;;;;;;6.27;95.64;101538.66;5028758;28;20049;-43
2023/01/31 07:33:39;;;;;;;41.67;6.78;;;;;;;6.25;95.50;101540.06;5033480;28;20057;-46
2023/01/31 07:36:07;;;;;;;18.58;4.68;;;;;;;6.23;95.32;101537.59;5029499;28;20045;-42
2023/01/31 07:38:34;;;;;;;29.08;5.30;;;;;;;6.23;95.51;101542.28;5029218;28;20115;-41
2023/01/31 07:41:03;;;;;;;30.73;6.38;;;;;;;6.21;95.53;101555.50;5029791;28;20041;-41
2023/01/31 07:43:31;;;;;;;24.33;5.22;;;;;;;6.20;95.48;101553.84;5029374;28;20068;-41
2023/01/31 07:45:58;;;;;;;25.30;4.80;;;;;;;6.18;95.51;101565.16;5029741;28;20140;-45
2023/01/31 07:48:25;;;;;;;32.38;5.50;;;;;;;6.18;95.47;101554.16;5029583;28;20072;-44
2023/01/31 07:50:57;;;;;;;31.48;6.22;;;;;;;6.19;95.33;101569.56;5029859;28;20060;-43
2023/01/31 07:53:25;;;;;;;20.38;4.00;;;;;;;6.19;95.17;101564.06;5029756;28;20041;-41
2023/01/31 07:55:52;;;;;;;24.25;5.53;;;;;;;6.17;95.31;101555.28;5029256;28;20380;-42
2023/01/31 07:58:19;;;;;;;22.70;5.18;;;;;;;6.16;95.08;101559.16;5029237;28;20041;-44
2023/01/31 08:03:33;;;;;;;19.67;5.13;;;;;;;6.14;95.02;101566.88;5029887;28;20084;-41
2023/01/31 08:06:07;;;;;;;28.60;4.97;;;;;;;6.12;95.08;101566.34;5029189;28;20095;-41
2023/01/31 08:08:38;;;;;;;26.08;5.57;;;;;;;6.13;94.87;101571.56;5025268;28;20049;-47
2023/01/31 08:11:04;;;;;;;22.77;4.97;;;;;;;6.14;95.05;101575.94;5035142;28;20398;-42
2023/01/31 08:13:32;;;;;;;26.20;5.28;;;;;;;6.15;95.05;101568.50;5029064;28;20057;-45
2023/01/31 08:16:00;;;;;;;27.42;5.15;;;;;;;6.16;95.16;101581.16;5029008;28;20518;-41
2023/01/31 08:18:27;;;;;;;17.20;4.60;;;;;;;6.16;94.89;101591.31;5025971;28;20468;-42
2023/01/31 08:20:56;;;;;;;23.48;4.78;;;;;;;6.15;95.17;101590.50;5033983;28;20050;-41
2023/01/31 08:23:23;;;;;;;22.98;5.20;;;;;;;6.15;95.17;101604.25;5028696;28;20064;-42
2023/01/31 08:25:49;;;;;;;36.20;6.63;;;;;;;6.16;95.32;101602.31;5028471;28;20037;-42
2023/01/31 08:28:16;;;;;;;26.27;6.32;;;;;;;6.16;95.06;101594.91;5028035;28;20047;-41
2023/01/31 08:30:43;;;;;;;25.10;4.10;;;;;;;6.17;95.13;101603.97;5028926;28;20084;-47
2023/01/31 08:33:18;;;;;;;21.10;5.03;;;;;;;6.17;95.07;101599.25;5030958;28;20047;-42
2023/01/31 08:35:45;;;;;;;29.65;5.53;;;;;;;6.18;94.99;101600.91;5028827;28;20084;-42
2023/01/31 08:38:12;;;;;;;22.75;4.18;;;;;;;6.19;95.15;101590.72;5041749;28;20051;-43
2023/01/31 08:40:42;;;;;;;20.02;4.97;;;;;;;6.19;95.09;101585.25;5028682;28;20041;-42
2023/01/31 08:43:09;;;;;;;29.35;7.40;;;;;;;6.20;95.04;101587.69;5028565;28;20088;-42
2023/01/31 08:45:36;;;;;;;23.88;4.85;;;;;;;6.20;94.89;101592.34;5029183;28;20415;-42
2023/01/31 08:48:03;;;;;;;17.85;5.32;;;;;;;6.21;94.90;101589.31;5028334;28;20041;-45
2023/01/31 08:50:31;;;;;;;32.20;5.72;;;;;;;6.22;94.88;101585.47;5028779;28;20132;-46
2023/01/31 08:53:01;;;;;;;27.23;4.85;;;;;;;6.23;94.70;101603.59;5028774;28;20049;-47
2023/01/31 08:55:30;;;;;;;31.02;6.22;;;;;;;6.23;94.74;101600.84;5028111;28;20057;-42
2023/01/31 08:57:58;;;;;;;24.35;4.30;;;;;;;6.21;94.75;101600.31;5028881;28;20502;-42
2023/01/31 09:00:26;;;;;;;19.25;5.47;;;;;;;6.22;94.75;101603.91;5028530;28;20053;-43
2023/01/31 09:02:56;;;;;;;31.52;6.18;;;;;;;6.22;94.76;101601.97;5028366;28;20398;-42
2023/01/31 09:05:25;;;;;;;22.65;5.45;;;;;;;6.24;94.84;101602.50;5028520;28;20114;-43
2023/01/31 09:07:52;;;;;;;40.85;7.40;;;;;;;6.27;94.75;101604.66;5024849;28;20049;-42
2023/01/31 09:10:21;;;;;;;22.17;5.20;;;;;;;6.28;95.00;101616.44;5031169;28;20041;-43
2023/01/31 09:12:48;;;;;;;35.90;9.27;;;;;;;6.30;94.68;101604.03;5029425;28;20073;-43
2023/01/31 09:15:16;;;;;;;25.70;4.57;;;;;;;6.32;94.56;101607.31;5019720;28;20045;-50
2023/01/31 09:17:43;;;;;;;24.83;5.10;;;;;;;6.33;94.82;101608.16;5028376;28;20491;-42
2023/01/31 09:20:10;;;;;;;23.48;5.47;;;;;;;6.35;94.90;101609.50;5028590;28;20057;-42
2023/01/31 09:22:37;;;;;;;33.50;6.32;;;;;;;6.36;95.02;101624.84;5028116;28;20056;-42
2023/01/31 09:25:04;;;;;;;28.60;6.50;;;;;;;6.39;94.86;101627.03;5028687;28;20814;-42
2023/01/31 09:27:31;;;;;;;23.13;5.38;;;;;;;6.41;95.11;101633.03;5027585;28;20038;-42
2023/01/31 09:29:58;;;;;;;22.55;4.55;;;;;;;6.45;95.00;101627.78;5020683;28;20079;-43
2023/01/31 09:32:25;;;;;;;21.35;4.45;;;;;;;6.48;94.97;101646.44;5027575;28;20053;-47
2023/01/31 09:34:52;;;;;;;24.60;5.97;;;;;;;6.50;94.98;101636.78;5032262;28;20045;-43
2023/01/31 09:37:18;;;;;;;26.17;6.07;;;;;;;6.58;94.90;101627.88;5028158;28;20045;-42
2023/01/31 09:39:45;;;;;;;28.58;5.00;;;;;;;6.63;94.66;101644.28;5028381;28;20057;-43
2023/01/31 09:42:40;;;;;;;17.05;4.43;;;;;;;6.66;93.95;101640.94;5028179;28;20057;-43
2023/01/31 09:45:38;;;;;;;12.57;3.97;;;;;;;6.70;93.82;101625.47;5028841;28;20055;-45
2023/01/31 09:48:06;;;;;;;25.20;4.40;;;;;;;6.68;93.40;101638.72;5015187;28;20045;-46
2023/01/31 09:50:47;;;;;;;28.52;6.15;;;;;;;6.66;93.47;101651.97;5028166;28;20061;-42
2023/01/31 09:53:20;;;;;;;22.90;4.72;;;;;;;6.63;93.53;101633.28;5028092;28;20446;-42
2023/01/31 09:55:59;;;;;;;34.28;8.18;;;;;;;6.61;93.46;101649.28;5028198;28;20399;-43
2023/01/31 09:58:41;;;;;;;22.05;4.78;;;;;;;6.63;93.44;101641.53;5026562;28;20507;-43
2023/01/31 10:01:23;;;;;;;20.27;5.03;;;;;;;6.65;92.84;101633.81;5027613;28;20071;-42
2023/01/31 10:04:06;;;;;;;23.75;5.07;;;;;;;6.69;92.81;101645.88;5036930;28;20041;-44
2023/01/31 10:07:09;;;;;;;24.02;4.05;;;;;;;6.71;92.68;101621.63;5027380;28;20560;-43
2023/01/31 10:09:55;;;;;;;16.08;3.92;;;;;;;6.73;92.45;101632.31;5028499;28;20046;-43
2023/01/31 10:12:32;;;;;;;20.77;4.78;;;;;;;6.74;92.14;101637.53;5037798;28;20107;-43
2023/01/31 10:15:31;;;;;;;13.35;4.00;;;;;;;6.74;91.49;101648.53;5029143;28;20128;-42
2023/01/31 10:18:04;;;;;;;22.52;4.32;;;;;;;6.80;91.25;101656.72;5024525;28;20037;-49
2023/01/31 10:20:46;;;;;;;25.95;5.63;;;;;;;6.81;91.31;101655.59;5030079;28;20041;-45
2023/01/31 10:23:30;;;;;;;28.08;4.38;;;;;;;6.83;91.11;101672.66;5031149;28;20068;-43
2023/01/31 10:26:00;;;;;;;33.40;5.53;;;;;;;6.84;90.42;101672.34;5030891;28;20049;-42
2023/01/31 10:28:55;;;;;;;21.73;4.82;;;;;;;6.87;90.53;101679.19;5031310;28;20449;-43
2023/01/31 10:31:40;;;;;;;25.17;5.43;;;;;;;6.88;90.27;101684.41;5020569;28;20052;-44
2023/01/31 10:34:18;;;;;;;29.83;5.45;;;;;;;6.91;90.25;101696.75;5034604;28;20041;-43
2023/01/31 10:37:08;;;;;;;25.85;4.75;;;;;;;6.94;90.04;101679.59;5031798;28;20124;-47
2023/01/31 10:39:51;;;;;;;18.38;4.53;;;;;;;6.96;89.46;101707.69;5021056;28;20061;-44
2023/01/31 10:42:30;;;;;;;20.90;4.20;;;;;;;6.98;89.09;101706.25;5031231;28;20487;-43
2023/01/31 10:45:08;;;;;;;25.23;6.00;;;;;;;7.02;88.59;101714.72;5030691;28;20073;-43
2023/01/31 10:47:50;;;;;;;19.60;4.90;;;;;;;7.05;88.23;101709.47;5030951;28;20048;-42
2023/01/31 10:50:26;;;;;;;31.17;7.50;;;;;;;7.07;87.51;101706.41;5030286;28;20137;-42
2023/01/31 10:53:08;;;;;;;24.77;4.65;;;;;;;7.09;87.09;101710.50;5031202;28;20045;-42
2023/01/31 10:56:06;;;;;;;23.50;3.90;;;;;;;7.13;86.70;101721.72;5019291;28;20565;-44
2023/01/31 10:58:35;;;;;;;33.65;5.10;;;;;;;7.15;86.50;101725.00;5030746;28;20049;-43
2023/01/31 11:01:07;;;;;;;30.55;5.65;;;;;;;7.17;85.42;101722.78;5030239;28;20511;-43
2023/01/31 11:03:34;;;;;;;26.60;6.47;;;;;;;7.19;85.00;101715.84;5017989;28;20568;-44
2023/01/31 11:06:01;;;;;;;16.63;4.88;;;;;;;7.21;85.16;101726.56;5030300;28;20470;-42
2023/01/31 11:08:41;;;;;;;23.48;4.75;;;;;;;7.23;85.30;101716.06;5026382;28;20159;-42
2023/01/31 11:11:11;;;;;;;15.32;5.40;;;;;;;7.25;85.12;101720.16;5035591;28;20053;-46
2023/01/31 11:13:39;;;;;;;22.23;5.63;;;;;;;7.27;84.44;101722.63;5029960;28;20518;-42
2023/01/31 11:16:08;;;;;;;25.70;6.20;;;;;;;7.28;84.82;101688.47;5030275;28;20077;-45
2023/01/31 11:18:42;;;;;;;24.63;5.82;;;;;;;7.29;84.01;101721.19;5030305;28;20403;-43
2023/01/31 11:21:17;;;;;;;17.95;5.50;;;;;;;7.30;84.04;101724.78;5030106;28;20451;-42
2023/01/31 11:23:50;;;;;;;20.63;5.53;;;;;;;7.33;83.63;101729.69;5030243;28;20126;-43
2023/01/31 11:26:32;;;;;;;31.63;6.55;;;;;;;7.42;83.60;101746.34;5030102;28;20414;-43
2023/01/31 11:29:01;;;;;;;28.70;5.72;;;;;;;7.43;83.21;101743.31;5026936;28;20076;-45
2023/01/31 11:31:34;;;;;;;21.88;5.93;;;;;;;7.44;83.02;101766.97;5029918;28;20049;-42
2023/01/31 11:34:04;;;;;;;18.70;5.68;;;;;;;7.46;83.17;101736.38;5033363;28;20426;-42
2023/01/31 11:36:39;;;;;;;21.73;6.65;;;;;;;7.48;83.13;101734.94;5028851;28;20546;-43
2023/01/31 11:39:25;;;;;;;26.05;5.57;;;;;;;7.56;83.00;101737.03;5030268;28;20052;-45
2023/01/31 11:41:53;;;;;;;22.90;5.85;;;;;;;7.63;83.66;101737.44;5029954;28;20057;-42
2023/01/31 11:44:21;;;;;;;19.48;6.03;;;;;;;7.64;82.69;101733.59;5030217;28;20041;-43
2023/01/31 11:46:58;;;;;;;36.35;5.68;;;;;;;7.58;82.45;101721.00;5029502;28;20052;-44
2023/01/31 11:49:40;;;;;;;12.65;3.75;;;;;;;7.47;82.06;101733.31;5029796;28;20119;-43
2023/01/31 11:52:20;;;;;;;17.45;4.30;;;;;;;7.43;81.89;101725.94;5017556;28;20087;-43
2023/01/31 11:54:55;;;;;;;18.75;4.22;;;;;;;7.36;81.84;101731.81;5029279;28;20064;-45
2023/01/31 11:57:34;;;;;;;13.95;3.92;;;;;;;7.39;81.88;101744.22;5030123;28;20050;-44